• Join FlightAware (Why Join?)
  • Login
  • US Flag 
01:32AM EDT


 

Airport Tracker/Info


-or-


 

Live Flight TrackerFlight Track Log ✈ ASH3770 ✈ 09-May-2013 ✈ KPIT - KORD

Flight Track Log - Related Links

Times and Time Zones

All times are in EDT time to prevent confusion due to time zone crossing. See the ASH3770 flight status page for this flight to view local times or setup timezone preferences in your user account.

Time Position Orientation Groundspeed Altitude Reporting Facility
EDT Latitude Longitude Course Direction KTS MPH feet Rate Location/Type
06:44PM 40.5403 -80.5203 291° West 268 308 9,000  Level Cleveland Center
06:45PM 40.5811 -80.7222 285° West  Level FlightAware Approximate
06:45PM 40.5611 -80.6158 286° West 268 308 11,400  Level Cleveland Center
06:46PM 40.6152 -80.8448 291° West  Level FlightAware Approximate
06:46PM 40.5861 -80.7281 286° West 317 365 12,800  Level Cleveland Center
06:47PM 40.6426 -80.9703 288° West  Level FlightAware Approximate
06:47PM 40.6131 -80.8483 286° West 330 380 14,000  Level Cleveland Center
06:48PM 40.6662 -81.0971 282° West  Level FlightAware Approximate
06:48PM 40.6439 -80.9800 287° West 356 410 15,900  Level Cleveland Center
06:49PM 40.6927 -81.2231 286° West  Level FlightAware Approximate
06:49PM 40.6725 -81.1250 285° West 377 434 18,400  Level Cleveland Center
06:50PM 40.7011 -81.2542 286° West 377 434 20,500 1,860 Climbing Cleveland Center
06:51PM 40.7314 -81.3858 287° West 377 434 22,200 1,500 Climbing Cleveland Center
06:52PM 40.7514 -81.5067 282° West 377 434 23,500 1,380 Climbing Cleveland Center
06:53PM 40.7794 -81.6442 285° West 383 441 25,000 1,500 Climbing Cleveland Center
06:54PM 40.8050 -81.7819 284° West 383 441 26,500 1,500 Climbing Cleveland Center
06:55PM 40.8286 -81.9222 283° West 388 447 28,100 1,500 Climbing Cleveland Center
06:56PM 40.8539 -82.0572 284° West 388 447 29,600 1,500 Climbing Cleveland Center
06:57PM 40.8811 -82.2033 284° West 383 441 31,100 1,200 Climbing Cleveland Center
06:58PM 40.9042 -82.3331 283° West 366 421 32,000 420 Climbing Cleveland Center
06:59PM 40.9269 -82.4711 282° West 374 430 32,000  Level Cleveland Center
07:00PM 40.9517 -82.6175 283° West 401 461 32,000  Level Cleveland Center
07:01PM 40.9781 -82.7642 283° West 413 475 32,000  Level Cleveland Center
07:02PM 41.0044 -82.9108 283° West 413 475 32,000  Level Cleveland Center
07:03PM 41.0306 -83.0578 283° West 413 475 32,000  Level Cleveland Center
07:04PM 41.0567 -83.1964 284° West 408 470 32,000  Level Cleveland Center
07:05PM 41.0822 -83.3433 283° West 402 463 32,000  Level Cleveland Center
07:06PM 41.0981 -83.4708 279° West 397 457 32,000  Level Cleveland Center
07:07PM 41.1214 -83.6153 282° West 397 457 32,000  Level Cleveland Center
07:09PM 41.1639 -83.8553 283° West 396 456 32,000  Level Chicago Center
07:10PM 41.1881 -83.9972 283° West 395 455 32,000  Level Chicago Center
07:11PM 41.2103 -84.1394 282° West 396 456 32,000  Level Chicago Center
07:12PM 41.2244 -84.3139 276° West 394 453 32,000  Level Chicago Center
07:13PM 41.2297 -84.4583 273° West 393 452 32,000  Level Chicago Center
07:14PM 41.2328 -84.6050 272° West 396 456 32,000  Level Chicago Center
07:15PM 41.2381 -84.7517 273° West 399 459 32,000  Level Chicago Center
07:16PM 41.2447 -84.8994 273° West 400 460 32,000 -540 Level Chicago Center
07:17PM 41.2503 -85.0483 273° West 402 463 30,900 -1,380 Descending Chicago Center
07:19PM 41.2561 -85.2325 272° West 411 473 29,200 -2,100 Descending Chicago Center
07:20PM 41.2619 -85.3889 273° West 418 481 26,600 -2,040 Descending Chicago Center
07:21PM 41.2669 -85.5464 272° West 422 486 25,000 -780 Descending Chicago Center
07:22PM 41.2883 -85.6953 281° West 420 483 25,000  Level Chicago Center
07:23PM 41.3164 -85.8411 284° West 408 470 25,000  Level Chicago Center
07:24PM 41.3453 -85.9892 285° West 412 474 25,000 -120 Level Chicago Center
07:25PM 41.3742 -86.1392 284° West 417 480 24,800 -960 Descending Chicago Center
07:26PM 41.4042 -86.2914 285° West 423 487 23,100 -2,040 Descending Chicago Center
07:27PM 41.4367 -86.4644 284° West 406 467 20,600 -2,220 Descending Chicago Center
07:28PM 41.4625 -86.6039 284° West 392 451 18,600 -1,980 Descending Chicago Center
07:29PM 41.4892 -86.7450 284° West 383 441 16,600 -1,980 Descending Chicago Center
07:30PM 41.5142 -86.8806 284° West 380 437 14,600 -1,980 Descending Chicago Center
07:31PM 41.5383 -87.0153 284° West 378 435 12,600 -1,260 Descending Chicago Center
07:32PM 41.5631 -87.1458 284° West 371 427 12,000 -480 Descending Chicago Center
07:32PM 41.5833 -87.2167 291° West 360 414 12,000 -900 Level Chicago TRACON
07:34PM 41.6500 -87.3500 304° West 374 430 10,600 -1,140 Descending Chicago TRACON
07:34PM 41.6769 -87.3975 307° West 375 432 10,100 -420 Descending Chicago Center
07:35PM 41.7392 -87.4992 309° West 361 415 10,000 -480 Descending Chicago Center
07:36PM 41.7942 -87.5889 309° West 321 369 9,200 -1,320 Descending Chicago Center
07:36PM 41.8167 -87.6333 304° West 294 338 8,200 -1,680 Descending Chicago TRACON
07:37PM 41.8667 -87.7167 309° West 284 327 7,000 -600 Descending Chicago TRACON
07:38PM 41.9500 -87.7333 352° North 266 306 7,000 -540 Level Chicago TRACON
07:40PM 42.0167 -87.7000 20° North 245 282 5,900 -1,440 Descending Chicago TRACON
07:41PM 42.0833 -87.7000 360° North 249 287 4,100 -1,620 Descending Chicago TRACON
07:42PM 42.1000 -87.7833 285° West 215 247 2,500 -960 Descending Chicago TRACON
07:43PM 42.0500 -87.8333 217° Southwest 176 203 2,100 -420 Descending Chicago TRACON